Yuma, AZ (85365)

10:05 PM MST on August 28, 2016 (GMT -0700)
Mobile Station | | Change Station

Elev 0 ft 43.61 °N, 116.40 °W | Updated 8 days ago

Clear
Clear
88 °F
Feels Like 88 °F
N
4
Wind Variable Wind from South
Gusts mph

Today
High -- | Low -- °F
--% Chance of Precip.
Yesterday
High -- | Low -- °F
Precip. -- in
Pressure 29.84 in
Visibility 10.0 miles
Clouds Clear
Dew Point 50 °F
Humidity 27%
Rainfall in
Snow Depth Not available.
6:10 AM 7:07 PM
Waning Crescent, 11% visible
METAR KNYL 290457Z AUTO 23005KT 10SM CLR 33/08 A2985 RMK AO2 SLP103 T03330078
Pressure 29.84 in
Visibility 10.0 miles
Clouds Clear
Dew Point 50 °F
Humidity 27%
Rainfall in
Snow Depth Not available.
6:10 AM 7:07 PM
Waning Crescent, 11% visible
METAR KNYL 290457Z AUTO 23005KT 10SM CLR 33/08 A2985 RMK AO2 SLP103 T03330078

10-Day Weather Forecast

Almanac

Astronomy

Aug. 28, 2016 Rise Set
Actual Time
Civil Twilight
Nautical Twilight
Astronomical Twilight
Moon
Length of Visible Light
Length of Day
Tomorrow will be .
, % of the Moon is Illuminated

Today's Extremes

State Highs State Lows

Community

WunderPhotos

Upload Photos

1,935,800 photos uploaded!

WunderBlog® & News

Nearby

Air Quality

  Air Quality AQ Index Pollutant
Not available.

Snow Depth

Station Depth Elevation

Earthquake Activity

City Distance Mag. Time & Date
Minimum magnitude displayed is 2.5.

Coastal Water Temperatures

Place Temperature

Stations

Nearby Weather Stations

Station Location Temp. Windchill Dew Point Humidity Wind Precip. Elev Updated Type
                   

Watches & Warnings

There are currently no watches in effect.